sensor_id;sensor_type;location;lat;lon;timestamp;P1;durP1;ratioP1;P2;durP2;ratioP2
25824;SDS011;13658;44.534;18.694;2023-04-03T00:00:50;119.85;;;75.25;;
25824;SDS011;13658;44.534;18.694;2023-04-03T00:03:17;121.28;;;73.70;;
25824;SDS011;13658;44.534;18.694;2023-04-03T00:05:44;113.25;;;71.80;;
25824;SDS011;13658;44.534;18.694;2023-04-03T00:08:11;122.85;;;74.05;;
25824;SDS011;13658;44.534;18.694;2023-04-03T00:10:37;118.57;;;71.60;;
25824;SDS011;13658;44.534;18.694;2023-04-03T00:13:04;121.40;;;74.45;;
25824;SDS011;13658;44.534;18.694;2023-04-03T00:15:31;105.65;;;65.85;;
25824;SDS011;13658;44.534;18.694;2023-04-03T00:17:57;106.13;;;61.70;;
25824;SDS011;13658;44.534;18.694;2023-04-03T00:20:23;100.82;;;62.05;;
25824;SDS011;13658;44.534;18.694;2023-04-03T00:22:49;85.20;;;52.58;;
25824;SDS011;13658;44.534;18.694;2023-04-03T00:25:15;69.15;;;45.70;;
25824;SDS011;13658;44.534;18.694;2023-04-03T00:27:41;58.13;;;37.92;;
25824;SDS011;13658;44.534;18.694;2023-04-03T00:30:08;49.78;;;32.70;;
25824;SDS011;13658;44.534;18.694;2023-04-03T00:32:36;19.00;;;13.98;;
25824;SDS011;13658;44.534;18.694;2023-04-03T00:35:02;16.92;;;12.57;;
25824;SDS011;13658;44.534;18.694;2023-04-03T00:37:28;13.43;;;9.50;;
25824;SDS011;13658;44.534;18.694;2023-04-03T00:39:54;12.85;;;9.10;;
25824;SDS011;13658;44.534;18.694;2023-04-03T00:42:21;10.25;;;8.70;;
25824;SDS011;13658;44.534;18.694;2023-04-03T00:47:13;9.93;;;8.00;;
25824;SDS011;13658;44.534;18.694;2023-04-03T00:49:42;9.77;;;7.70;;
25824;SDS011;13658;44.534;18.694;2023-04-03T00:52:11;11.65;;;8.15;;
25824;SDS011;13658;44.534;18.694;2023-04-03T00:54:42;8.50;;;7.32;;
25824;SDS011;13658;44.534;18.694;2023-04-03T00:57:10;10.13;;;7.65;;
25824;SDS011;13658;44.534;18.694;2023-04-03T00:59:42;8.68;;;7.32;;
25824;SDS011;13658;44.534;18.694;2023-04-03T01:02:10;9.07;;;7.43;;
25824;SDS011;13658;44.534;18.694;2023-04-03T01:04:37;8.13;;;7.07;;
25824;SDS011;13658;44.534;18.694;2023-04-03T01:07:10;8.18;;;6.90;;
25824;SDS011;13658;44.534;18.694;2023-04-03T01:09:39;8.43;;;6.97;;
25824;SDS011;13658;44.534;18.694;2023-04-03T01:12:13;9.15;;;7.63;;
25824;SDS011;13658;44.534;18.694;2023-04-03T01:14:46;9.73;;;7.20;;
25824;SDS011;13658;44.534;18.694;2023-04-03T01:17:30;9.77;;;7.35;;
25824;SDS011;13658;44.534;18.694;2023-04-03T01:20:02;11.18;;;7.35;;
25824;SDS011;13658;44.534;18.694;2023-04-03T01:28:20;12.68;;;9.20;;
25824;SDS011;13658;44.534;18.694;2023-04-03T01:30:53;8.07;;;6.32;;
25824;SDS011;13658;44.534;18.694;2023-04-03T01:33:42;8.80;;;7.03;;
25824;SDS011;13658;44.534;18.694;2023-04-03T01:36:09;10.10;;;7.70;;
25824;SDS011;13658;44.534;18.694;2023-04-03T01:38:39;10.57;;;7.35;;
25824;SDS011;13658;44.534;18.694;2023-04-03T01:41:05;9.70;;;7.30;;
25824;SDS011;13658;44.534;18.694;2023-04-03T01:43:31;9.30;;;7.47;;
25824;SDS011;13658;44.534;18.694;2023-04-03T01:45:57;8.75;;;7.07;;
25824;SDS011;13658;44.534;18.694;2023-04-03T01:48:23;9.25;;;7.38;;
25824;SDS011;13658;44.534;18.694;2023-04-03T01:50:49;9.55;;;7.28;;
25824;SDS011;13658;44.534;18.694;2023-04-03T01:53:15;10.98;;;7.80;;
25824;SDS011;13658;44.534;18.694;2023-04-03T01:55:44;9.05;;;7.45;;
25824;SDS011;13658;44.534;18.694;2023-04-03T01:58:10;11.40;;;8.38;;
25824;SDS011;13658;44.534;18.694;2023-04-03T02:00:36;10.35;;;7.85;;
25824;SDS011;13658;44.534;18.694;2023-04-03T02:03:02;9.52;;;7.50;;
25824;SDS011;13658;44.534;18.694;2023-04-03T02:05:28;9.50;;;7.63;;
25824;SDS011;13658;44.534;18.694;2023-04-03T02:07:55;8.95;;;7.88;;
25824;SDS011;13658;44.534;18.694;2023-04-03T02:10:21;10.00;;;8.13;;
25824;SDS011;13658;44.534;18.694;2023-04-03T02:12:47;10.10;;;7.68;;
25824;SDS011;13658;44.534;18.694;2023-04-03T02:15:13;9.18;;;7.22;;
25824;SDS011;13658;44.534;18.694;2023-04-03T02:17:40;9.63;;;7.63;;
25824;SDS011;13658;44.534;18.694;2023-04-03T02:20:06;11.10;;;8.32;;
25824;SDS011;13658;44.534;18.694;2023-04-03T02:22:32;11.70;;;7.95;;
25824;SDS011;13658;44.534;18.694;2023-04-03T02:24:58;9.98;;;7.88;;
25824;SDS011;13658;44.534;18.694;2023-04-03T02:27:24;9.93;;;8.02;;
25824;SDS011;13658;44.534;18.694;2023-04-03T02:29:50;10.38;;;7.30;;
25824;SDS011;13658;44.534;18.694;2023-04-03T02:32:16;10.32;;;7.97;;
25824;SDS011;13658;44.534;18.694;2023-04-03T02:34:43;11.50;;;8.25;;
25824;SDS011;13658;44.534;18.694;2023-04-03T02:37:13;12.23;;;7.75;;
25824;SDS011;13658;44.534;18.694;2023-04-03T02:39:40;11.00;;;8.25;;
25824;SDS011;13658;44.534;18.694;2023-04-03T02:42:06;13.45;;;7.55;;
25824;SDS011;13658;44.534;18.694;2023-04-03T02:44:33;10.25;;;7.50;;
25824;SDS011;13658;44.534;18.694;2023-04-03T02:46:59;12.05;;;8.10;;
25824;SDS011;13658;44.534;18.694;2023-04-03T02:49:25;12.15;;;7.63;;
25824;SDS011;13658;44.534;18.694;2023-04-03T02:51:50;12.75;;;8.75;;
25824;SDS011;13658;44.534;18.694;2023-04-03T02:54:16;11.90;;;7.93;;
25824;SDS011;13658;44.534;18.694;2023-04-03T02:56:47;11.18;;;8.32;;
25824;SDS011;13658;44.534;18.694;2023-04-03T02:59:13;12.48;;;8.80;;
25824;SDS011;13658;44.534;18.694;2023-04-03T03:01:40;12.88;;;8.55;;
25824;SDS011;13658;44.534;18.694;2023-04-03T03:04:06;12.40;;;9.43;;
25824;SDS011;13658;44.534;18.694;2023-04-03T03:06:32;13.43;;;9.57;;
25824;SDS011;13658;44.534;18.694;2023-04-03T03:08:58;13.68;;;9.48;;
25824;SDS011;13658;44.534;18.694;2023-04-03T03:11:24;16.15;;;11.95;;
25824;SDS011;13658;44.534;18.694;2023-04-03T03:13:51;13.77;;;9.27;;
25824;SDS011;13658;44.534;18.694;2023-04-03T03:16:17;12.27;;;8.88;;
25824;SDS011;13658;44.534;18.694;2023-04-03T03:18:44;14.63;;;9.13;;
25824;SDS011;13658;44.534;18.694;2023-04-03T03:21:10;17.35;;;12.45;;
25824;SDS011;13658;44.534;18.694;2023-04-03T03:23:36;13.50;;;9.00;;
25824;SDS011;13658;44.534;18.694;2023-04-03T03:26:04;13.05;;;8.70;;
25824;SDS011;13658;44.534;18.694;2023-04-03T03:28:33;10.45;;;8.00;;
25824;SDS011;13658;44.534;18.694;2023-04-03T03:31:00;10.23;;;8.45;;
25824;SDS011;13658;44.534;18.694;2023-04-03T03:33:28;13.55;;;9.10;;
25824;SDS011;13658;44.534;18.694;2023-04-03T03:35:55;12.60;;;9.32;;
25824;SDS011;13658;44.534;18.694;2023-04-03T03:38:22;14.25;;;9.68;;
25824;SDS011;13658;44.534;18.694;2023-04-03T03:40:49;12.63;;;9.07;;
25824;SDS011;13658;44.534;18.694;2023-04-03T03:43:17;12.90;;;9.38;;
25824;SDS011;13658;44.534;18.694;2023-04-03T03:45:46;11.02;;;8.43;;
25824;SDS011;13658;44.534;18.694;2023-04-03T03:48:16;13.10;;;9.07;;
25824;SDS011;13658;44.534;18.694;2023-04-03T03:50:43;12.05;;;8.95;;
25824;SDS011;13658;44.534;18.694;2023-04-03T03:53:10;12.15;;;8.93;;
25824;SDS011;13658;44.534;18.694;2023-04-03T03:55:36;13.18;;;9.35;;
25824;SDS011;13658;44.534;18.694;2023-04-03T03:58:02;11.10;;;8.02;;
25824;SDS011;13658;44.534;18.694;2023-04-03T04:00:30;12.50;;;8.10;;
25824;SDS011;13658;44.534;18.694;2023-04-03T04:02:56;11.65;;;8.68;;
25824;SDS011;13658;44.534;18.694;2023-04-03T04:05:24;17.45;;;11.93;;
25824;SDS011;13658;44.534;18.694;2023-04-03T04:07:51;11.45;;;9.05;;
25824;SDS011;13658;44.534;18.694;2023-04-03T04:10:18;14.55;;;12.15;;
25824;SDS011;13658;44.534;18.694;2023-04-03T04:12:44;12.43;;;9.68;;
25824;SDS011;13658;44.534;18.694;2023-04-03T04:15:11;13.45;;;9.98;;
25824;SDS011;13658;44.534;18.694;2023-04-03T04:17:38;16.67;;;11.18;;
25824;SDS011;13658;44.534;18.694;2023-04-03T04:20:07;17.50;;;10.70;;
25824;SDS011;13658;44.534;18.694;2023-04-03T04:22:35;18.17;;;12.30;;
25824;SDS011;13658;44.534;18.694;2023-04-03T04:25:01;14.50;;;10.95;;
25824;SDS011;13658;44.534;18.694;2023-04-03T04:27:27;16.88;;;10.25;;
25824;SDS011;13658;44.534;18.694;2023-04-03T04:29:53;16.05;;;12.45;;
25824;SDS011;13658;44.534;18.694;2023-04-03T04:32:20;17.52;;;11.25;;
25824;SDS011;13658;44.534;18.694;2023-04-03T04:34:47;17.23;;;10.73;;
25824;SDS011;13658;44.534;18.694;2023-04-03T04:37:13;15.25;;;10.18;;
25824;SDS011;13658;44.534;18.694;2023-04-03T04:39:39;21.38;;;13.77;;
25824;SDS011;13658;44.534;18.694;2023-04-03T04:42:05;20.90;;;14.02;;
25824;SDS011;13658;44.534;18.694;2023-04-03T04:44:33;20.35;;;12.60;;
25824;SDS011;13658;44.534;18.694;2023-04-03T04:46:59;25.30;;;12.38;;
25824;SDS011;13658;44.534;18.694;2023-04-03T04:49:26;16.55;;;10.82;;
25824;SDS011;13658;44.534;18.694;2023-04-03T04:51:53;17.20;;;11.20;;
25824;SDS011;13658;44.534;18.694;2023-04-03T04:54:25;17.45;;;11.73;;
25824;SDS011;13658;44.534;18.694;2023-04-03T04:56:51;18.92;;;11.55;;
25824;SDS011;13658;44.534;18.694;2023-04-03T04:59:18;19.98;;;13.15;;
25824;SDS011;13658;44.534;18.694;2023-04-03T05:01:44;19.00;;;13.13;;
25824;SDS011;13658;44.534;18.694;2023-04-03T05:04:14;22.10;;;13.15;;
25824;SDS011;13658;44.534;18.694;2023-04-03T05:06:41;21.45;;;13.48;;
25824;SDS011;13658;44.534;18.694;2023-04-03T05:09:12;24.58;;;14.93;;
25824;SDS011;13658;44.534;18.694;2023-04-03T05:11:42;25.10;;;15.73;;
25824;SDS011;13658;44.534;18.694;2023-04-03T05:14:09;22.70;;;14.50;;
25824;SDS011;13658;44.534;18.694;2023-04-03T05:16:35;25.27;;;15.48;;
25824;SDS011;13658;44.534;18.694;2023-04-03T05:19:02;24.88;;;16.50;;
25824;SDS011;13658;44.534;18.694;2023-04-03T05:21:29;23.70;;;14.05;;
25824;SDS011;13658;44.534;18.694;2023-04-03T05:24:01;27.13;;;15.68;;
25824;SDS011;13658;44.534;18.694;2023-04-03T05:26:30;24.45;;;15.45;;
25824;SDS011;13658;44.534;18.694;2023-04-03T05:28:58;25.83;;;15.70;;
25824;SDS011;13658;44.534;18.694;2023-04-03T05:31:24;34.70;;;18.13;;
25824;SDS011;13658;44.534;18.694;2023-04-03T05:33:51;29.17;;;17.45;;
25824;SDS011;13658;44.534;18.694;2023-04-03T05:36:17;29.75;;;16.17;;
25824;SDS011;13658;44.534;18.694;2023-04-03T05:38:48;31.58;;;18.13;;
25824;SDS011;13658;44.534;18.694;2023-04-03T05:41:14;27.83;;;16.58;;
25824;SDS011;13658;44.534;18.694;2023-04-03T05:43:44;30.23;;;18.67;;
25824;SDS011;13658;44.534;18.694;2023-04-03T05:46:17;30.08;;;19.60;;
25824;SDS011;13658;44.534;18.694;2023-04-03T05:48:48;29.50;;;16.55;;
25824;SDS011;13658;44.534;18.694;2023-04-03T05:51:19;25.35;;;16.70;;
25824;SDS011;13658;44.534;18.694;2023-04-03T05:53:52;28.25;;;17.50;;
25824;SDS011;13658;44.534;18.694;2023-04-03T05:56:24;28.30;;;17.23;;
25824;SDS011;13658;44.534;18.694;2023-04-03T05:58:50;33.03;;;20.35;;
25824;SDS011;13658;44.534;18.694;2023-04-03T06:01:16;35.05;;;22.17;;
25824;SDS011;13658;44.534;18.694;2023-04-03T06:03:43;30.02;;;19.80;;
25824;SDS011;13658;44.534;18.694;2023-04-03T06:06:12;40.15;;;27.83;;
25824;SDS011;13658;44.534;18.694;2023-04-03T06:08:39;42.63;;;27.98;;
25824;SDS011;13658;44.534;18.694;2023-04-03T06:11:05;34.90;;;22.30;;
25824;SDS011;13658;44.534;18.694;2023-04-03T06:13:33;30.08;;;19.92;;
25824;SDS011;13658;44.534;18.694;2023-04-03T06:16:00;35.17;;;21.77;;
25824;SDS011;13658;44.534;18.694;2023-04-03T06:18:27;36.42;;;24.55;;
25824;SDS011;13658;44.534;18.694;2023-04-03T06:20:54;32.30;;;21.00;;
25824;SDS011;13658;44.534;18.694;2023-04-03T06:23:20;35.40;;;22.67;;
25824;SDS011;13658;44.534;18.694;2023-04-03T06:25:46;35.67;;;22.77;;
25824;SDS011;13658;44.534;18.694;2023-04-03T06:28:12;34.25;;;20.70;;
25824;SDS011;13658;44.534;18.694;2023-04-03T06:30:38;30.67;;;19.85;;
25824;SDS011;13658;44.534;18.694;2023-04-03T06:33:04;32.35;;;22.90;;
25824;SDS011;13658;44.534;18.694;2023-04-03T06:35:30;32.45;;;20.73;;
25824;SDS011;13658;44.534;18.694;2023-04-03T06:37:56;30.80;;;20.35;;
25824;SDS011;13658;44.534;18.694;2023-04-03T06:40:23;37.42;;;23.20;;
25824;SDS011;13658;44.534;18.694;2023-04-03T06:42:50;31.35;;;19.80;;
25824;SDS011;13658;44.534;18.694;2023-04-03T06:45:18;43.90;;;24.88;;
25824;SDS011;13658;44.534;18.694;2023-04-03T06:47:47;36.75;;;22.58;;
25824;SDS011;13658;44.534;18.694;2023-04-03T06:50:12;40.60;;;25.05;;
25824;SDS011;13658;44.534;18.694;2023-04-03T06:52:40;46.40;;;26.58;;
25824;SDS011;13658;44.534;18.694;2023-04-03T06:55:06;51.72;;;30.35;;
25824;SDS011;13658;44.534;18.694;2023-04-03T06:57:33;48.65;;;27.45;;
25824;SDS011;13658;44.534;18.694;2023-04-03T06:59:59;41.10;;;24.30;;
25824;SDS011;13658;44.534;18.694;2023-04-03T07:02:25;47.40;;;30.70;;
25824;SDS011;13658;44.534;18.694;2023-04-03T07:04:51;39.25;;;24.48;;
25824;SDS011;13658;44.534;18.694;2023-04-03T07:07:17;32.42;;;19.27;;
25824;SDS011;13658;44.534;18.694;2023-04-03T07:09:43;34.63;;;21.55;;
25824;SDS011;13658;44.534;18.694;2023-04-03T07:12:10;36.55;;;21.77;;
25824;SDS011;13658;44.534;18.694;2023-04-03T07:14:36;31.85;;;20.10;;
25824;SDS011;13658;44.534;18.694;2023-04-03T07:17:01;35.35;;;21.20;;
25824;SDS011;13658;44.534;18.694;2023-04-03T07:19:27;34.13;;;22.60;;
25824;SDS011;13658;44.534;18.694;2023-04-03T07:21:53;28.50;;;18.40;;
25824;SDS011;13658;44.534;18.694;2023-04-03T07:24:20;28.55;;;18.38;;
25824;SDS011;13658;44.534;18.694;2023-04-03T07:26:50;31.83;;;20.30;;
25824;SDS011;13658;44.534;18.694;2023-04-03T07:29:19;29.55;;;17.83;;
25824;SDS011;13658;44.534;18.694;2023-04-03T07:31:46;26.58;;;16.70;;
25824;SDS011;13658;44.534;18.694;2023-04-03T07:34:12;25.83;;;16.80;;
25824;SDS011;13658;44.534;18.694;2023-04-03T07:36:38;22.70;;;14.93;;
25824;SDS011;13658;44.534;18.694;2023-04-03T07:39:04;28.80;;;16.48;;
25824;SDS011;13658;44.534;18.694;2023-04-03T07:41:32;23.45;;;15.75;;
25824;SDS011;13658;44.534;18.694;2023-04-03T07:43:58;18.65;;;11.50;;
25824;SDS011;13658;44.534;18.694;2023-04-03T07:46:24;18.65;;;13.05;;
25824;SDS011;13658;44.534;18.694;2023-04-03T07:48:50;18.20;;;12.00;;
25824;SDS011;13658;44.534;18.694;2023-04-03T07:51:16;19.30;;;13.13;;
25824;SDS011;13658;44.534;18.694;2023-04-03T07:53:42;18.70;;;12.02;;
25824;SDS011;13658;44.534;18.694;2023-04-03T07:56:08;19.33;;;13.65;;
25824;SDS011;13658;44.534;18.694;2023-04-03T07:58:34;22.33;;;15.23;;
25824;SDS011;13658;44.534;18.694;2023-04-03T08:01:01;17.90;;;12.73;;
25824;SDS011;13658;44.534;18.694;2023-04-03T08:03:27;18.10;;;11.45;;
25824;SDS011;13658;44.534;18.694;2023-04-03T08:05:53;18.15;;;11.45;;
25824;SDS011;13658;44.534;18.694;2023-04-03T08:08:20;18.42;;;10.45;;
25824;SDS011;13658;44.534;18.694;2023-04-03T08:10:48;15.98;;;9.82;;
25824;SDS011;13658;44.534;18.694;2023-04-03T08:13:18;16.83;;;10.90;;
25824;SDS011;13658;44.534;18.694;2023-04-03T08:15:45;20.70;;;9.70;;
25824;SDS011;13658;44.534;18.694;2023-04-03T08:18:12;17.95;;;11.18;;
25824;SDS011;13658;44.534;18.694;2023-04-03T08:20:38;13.95;;;9.45;;
25824;SDS011;13658;44.534;18.694;2023-04-03T08:23:06;17.88;;;10.60;;
25824;SDS011;13658;44.534;18.694;2023-04-03T08:25:34;26.23;;;14.90;;
25824;SDS011;13658;44.534;18.694;2023-04-03T08:28:04;16.65;;;11.10;;
25824;SDS011;13658;44.534;18.694;2023-04-03T08:30:30;13.63;;;9.90;;
25824;SDS011;13658;44.534;18.694;2023-04-03T08:32:56;16.23;;;10.52;;
25824;SDS011;13658;44.534;18.694;2023-04-03T08:35:22;16.50;;;11.60;;
25824;SDS011;13658;44.534;18.694;2023-04-03T08:37:48;25.17;;;13.80;;
25824;SDS011;13658;44.534;18.694;2023-04-03T08:40:15;18.27;;;11.57;;
25824;SDS011;13658;44.534;18.694;2023-04-03T08:42:48;19.13;;;12.23;;
25824;SDS011;13658;44.534;18.694;2023-04-03T08:45:45;18.92;;;11.10;;
25824;SDS011;13658;44.534;18.694;2023-04-03T08:48:17;19.92;;;11.52;;
25824;SDS011;13658;44.534;18.694;2023-04-03T08:50:47;23.52;;;12.85;;
25824;SDS011;13658;44.534;18.694;2023-04-03T08:53:27;21.52;;;13.57;;
25824;SDS011;13658;44.534;18.694;2023-04-03T08:55:57;33.25;;;19.85;;
25824;SDS011;13658;44.534;18.694;2023-04-03T08:58:28;35.00;;;22.88;;
25824;SDS011;13658;44.534;18.694;2023-04-03T09:01:01;21.38;;;14.05;;
25824;SDS011;13658;44.534;18.694;2023-04-03T09:03:31;18.05;;;11.45;;
25824;SDS011;13658;44.534;18.694;2023-04-03T09:06:07;15.32;;;8.30;;
25824;SDS011;13658;44.534;18.694;2023-04-03T09:09:06;13.70;;;8.75;;
25824;SDS011;13658;44.534;18.694;2023-04-03T09:17:41;17.88;;;12.52;;
25824;SDS011;13658;44.534;18.694;2023-04-03T09:23:13;11.10;;;8.18;;
25824;SDS011;13658;44.534;18.694;2023-04-03T09:25:48;15.02;;;10.15;;
25824;SDS011;13658;44.534;18.694;2023-04-03T09:28:16;18.48;;;11.90;;
25824;SDS011;13658;44.534;18.694;2023-04-03T09:30:42;13.02;;;8.85;;
25824;SDS011;13658;44.534;18.694;2023-04-03T09:33:08;14.30;;;9.77;;
25824;SDS011;13658;44.534;18.694;2023-04-03T09:35:35;15.48;;;10.05;;
25824;SDS011;13658;44.534;18.694;2023-04-03T09:43:19;10.88;;;7.03;;
25824;SDS011;13658;44.534;18.694;2023-04-03T09:45:46;5.10;;;3.00;;
25824;SDS011;13658;44.534;18.694;2023-04-03T09:56:04;9.77;;;5.43;;
25824;SDS011;13658;44.534;18.694;2023-04-03T10:06:37;5.90;;;4.30;;
25824;SDS011;13658;44.534;18.694;2023-04-03T10:09:31;5.88;;;4.28;;
25824;SDS011;13658;44.534;18.694;2023-04-03T10:12:11;8.15;;;7.05;;
25824;SDS011;13658;44.534;18.694;2023-04-03T10:14:40;5.28;;;3.80;;
25824;SDS011;13658;44.534;18.694;2023-04-03T10:23:17;4.72;;;3.53;;
25824;SDS011;13658;44.534;18.694;2023-04-03T10:30:54;2.38;;;1.85;;
25824;SDS011;13658;44.534;18.694;2023-04-03T10:52:57;4.05;;;2.33;;
25824;SDS011;13658;44.534;18.694;2023-04-03T10:58:37;2.90;;;2.10;;
25824;SDS011;13658;44.534;18.694;2023-04-03T11:01:14;5.72;;;4.00;;
25824;SDS011;13658;44.534;18.694;2023-04-03T11:03:52;6.43;;;5.28;;
25824;SDS011;13658;44.534;18.694;2023-04-03T11:06:22;14.35;;;7.40;;
25824;SDS011;13658;44.534;18.694;2023-04-03T11:08:57;8.32;;;5.10;;
25824;SDS011;13658;44.534;18.694;2023-04-03T11:11:37;4.70;;;3.10;;
25824;SDS011;13658;44.534;18.694;2023-04-03T11:14:21;8.85;;;4.88;;
25824;SDS011;13658;44.534;18.694;2023-04-03T11:20:01;4.55;;;3.10;;
25824;SDS011;13658;44.534;18.694;2023-04-03T11:22:41;3.33;;;2.80;;
25824;SDS011;13658;44.534;18.694;2023-04-03T11:27:41;5.47;;;3.70;;
25824;SDS011;13658;44.534;18.694;2023-04-03T11:30:18;5.40;;;4.88;;
25824;SDS011;13658;44.534;18.694;2023-04-03T11:35:27;9.18;;;6.40;;
25824;SDS011;13658;44.534;18.694;2023-04-03T11:37:53;8.70;;;7.82;;
25824;SDS011;13658;44.534;18.694;2023-04-03T11:40:31;11.02;;;8.70;;
25824;SDS011;13658;44.534;18.694;2023-04-03T11:50:45;14.50;;;12.05;;
25824;SDS011;13658;44.534;18.694;2023-04-03T11:58:18;12.10;;;9.65;;
25824;SDS011;13658;44.534;18.694;2023-04-03T12:16:29;17.58;;;13.45;;
25824;SDS011;13658;44.534;18.694;2023-04-03T12:29:15;18.40;;;13.77;;
25824;SDS011;13658;44.534;18.694;2023-04-03T12:31:49;19.83;;;13.20;;
25824;SDS011;13658;44.534;18.694;2023-04-03T12:37:20;17.85;;;13.13;;
25824;SDS011;13658;44.534;18.694;2023-04-03T12:46:03;25.15;;;16.48;;
25824;SDS011;13658;44.534;18.694;2023-04-03T12:51:18;20.88;;;15.18;;
25824;SDS011;13658;44.534;18.694;2023-04-03T12:53:51;35.78;;;16.63;;
25824;SDS011;13658;44.534;18.694;2023-04-03T12:56:26;22.88;;;15.20;;
25824;SDS011;13658;44.534;18.694;2023-04-03T12:58:55;21.10;;;15.23;;
25824;SDS011;13658;44.534;18.694;2023-04-03T13:01:38;23.27;;;14.85;;
25824;SDS011;13658;44.534;18.694;2023-04-03T13:04:04;21.23;;;14.90;;
25824;SDS011;13658;44.534;18.694;2023-04-03T13:06:32;27.23;;;16.70;;
25824;SDS011;13658;44.534;18.694;2023-04-03T13:09:03;20.42;;;14.35;;
25824;SDS011;13658;44.534;18.694;2023-04-03T13:11:34;21.58;;;14.43;;
25824;SDS011;13658;44.534;18.694;2023-04-03T13:14:15;23.73;;;15.77;;
25824;SDS011;13658;44.534;18.694;2023-04-03T13:16:56;20.55;;;13.32;;
25824;SDS011;13658;44.534;18.694;2023-04-03T13:19:24;28.63;;;18.92;;
25824;SDS011;13658;44.534;18.694;2023-04-03T13:21:57;28.90;;;18.40;;
25824;SDS011;13658;44.534;18.694;2023-04-03T13:24:38;30.00;;;20.35;;
25824;SDS011;13658;44.534;18.694;2023-04-03T13:27:05;22.95;;;15.07;;
25824;SDS011;13658;44.534;18.694;2023-04-03T13:29:35;24.52;;;15.32;;
25824;SDS011;13658;44.534;18.694;2023-04-03T13:32:02;23.00;;;15.52;;
25824;SDS011;13658;44.534;18.694;2023-04-03T13:34:37;25.45;;;17.42;;
25824;SDS011;13658;44.534;18.694;2023-04-03T13:37:06;34.75;;;21.23;;
25824;SDS011;13658;44.534;18.694;2023-04-03T13:39:44;30.77;;;18.95;;
25824;SDS011;13658;44.534;18.694;2023-04-03T13:42:23;35.35;;;20.33;;
25824;SDS011;13658;44.534;18.694;2023-04-03T13:45:06;32.47;;;21.27;;
25824;SDS011;13658;44.534;18.694;2023-04-03T13:47:45;30.98;;;20.77;;
25824;SDS011;13658;44.534;18.694;2023-04-03T13:52:43;25.73;;;17.90;;
25824;SDS011;13658;44.534;18.694;2023-04-03T13:55:59;30.65;;;20.70;;
25824;SDS011;13658;44.534;18.694;2023-04-03T13:58:28;25.23;;;17.38;;
25824;SDS011;13658;44.534;18.694;2023-04-03T14:00:59;25.58;;;18.02;;
25824;SDS011;13658;44.534;18.694;2023-04-03T14:03:45;24.80;;;19.80;;
25824;SDS011;13658;44.534;18.694;2023-04-03T14:06:21;22.35;;;16.75;;
25824;SDS011;13658;44.534;18.694;2023-04-03T14:11:29;25.08;;;17.13;;
25824;SDS011;13658;44.534;18.694;2023-04-03T14:13:58;26.25;;;17.95;;
25824;SDS011;13658;44.534;18.694;2023-04-03T14:16:31;24.98;;;17.80;;
25824;SDS011;13658;44.534;18.694;2023-04-03T14:19:02;26.83;;;16.48;;
25824;SDS011;13658;44.534;18.694;2023-04-03T14:21:28;32.03;;;19.30;;
25824;SDS011;13658;44.534;18.694;2023-04-03T14:23:56;30.92;;;18.65;;
25824;SDS011;13658;44.534;18.694;2023-04-03T14:26:28;21.48;;;14.00;;
25824;SDS011;13658;44.534;18.694;2023-04-03T14:29:40;20.48;;;13.93;;
25824;SDS011;13658;44.534;18.694;2023-04-03T14:32:10;20.58;;;13.98;;
25824;SDS011;13658;44.534;18.694;2023-04-03T14:34:39;20.30;;;14.05;;
25824;SDS011;13658;44.534;18.694;2023-04-03T14:37:12;24.88;;;16.35;;
25824;SDS011;13658;44.534;18.694;2023-04-03T14:39:48;30.65;;;17.08;;
25824;SDS011;13658;44.534;18.694;2023-04-03T14:42:19;24.73;;;16.70;;
25824;SDS011;13658;44.534;18.694;2023-04-03T14:44:51;27.52;;;17.95;;
25824;SDS011;13658;44.534;18.694;2023-04-03T14:47:19;31.52;;;19.10;;
25824;SDS011;13658;44.534;18.694;2023-04-03T14:49:48;29.45;;;18.48;;
25824;SDS011;13658;44.534;18.694;2023-04-03T14:52:26;31.45;;;18.95;;
25824;SDS011;13658;44.534;18.694;2023-04-03T14:54:54;33.40;;;20.85;;
25824;SDS011;13658;44.534;18.694;2023-04-03T14:57:21;44.92;;;27.10;;
25824;SDS011;13658;44.534;18.694;2023-04-03T14:59:50;51.13;;;30.58;;
25824;SDS011;13658;44.534;18.694;2023-04-03T15:02:27;51.00;;;30.67;;
25824;SDS011;13658;44.534;18.694;2023-04-03T15:04:56;45.25;;;27.95;;
25824;SDS011;13658;44.534;18.694;2023-04-03T15:07:26;45.25;;;28.02;;
25824;SDS011;13658;44.534;18.694;2023-04-03T15:10:00;46.55;;;28.38;;
25824;SDS011;13658;44.534;18.694;2023-04-03T15:12:42;45.65;;;28.05;;
25824;SDS011;13658;44.534;18.694;2023-04-03T15:15:09;48.40;;;28.38;;
25824;SDS011;13658;44.534;18.694;2023-04-03T15:17:36;51.65;;;29.90;;
25824;SDS011;13658;44.534;18.694;2023-04-03T15:20:03;50.75;;;30.63;;
25824;SDS011;13658;44.534;18.694;2023-04-03T15:22:37;42.08;;;26.05;;
25824;SDS011;13658;44.534;18.694;2023-04-03T15:25:04;36.28;;;23.70;;
25824;SDS011;13658;44.534;18.694;2023-04-03T15:27:32;35.38;;;23.50;;
25824;SDS011;13658;44.534;18.694;2023-04-03T15:29:58;35.50;;;22.25;;
25824;SDS011;13658;44.534;18.694;2023-04-03T15:32:24;39.42;;;24.17;;
25824;SDS011;13658;44.534;18.694;2023-04-03T15:34:51;39.40;;;24.58;;
25824;SDS011;13658;44.534;18.694;2023-04-03T15:37:17;44.28;;;26.25;;
25824;SDS011;13658;44.534;18.694;2023-04-03T15:39:43;39.35;;;23.77;;
25824;SDS011;13658;44.534;18.694;2023-04-03T15:42:09;39.53;;;24.70;;
25824;SDS011;13658;44.534;18.694;2023-04-03T15:44:37;38.53;;;23.85;;
25824;SDS011;13658;44.534;18.694;2023-04-03T15:47:06;37.70;;;24.55;;
25824;SDS011;13658;44.534;18.694;2023-04-03T15:49:32;45.53;;;24.95;;
25824;SDS011;13658;44.534;18.694;2023-04-03T15:51:59;41.90;;;25.27;;
25824;SDS011;13658;44.534;18.694;2023-04-03T15:54:28;40.80;;;24.92;;
25824;SDS011;13658;44.534;18.694;2023-04-03T15:56:55;38.22;;;24.08;;
25824;SDS011;13658;44.534;18.694;2023-04-03T15:59:38;39.67;;;24.35;;
25824;SDS011;13658;44.534;18.694;2023-04-03T16:02:10;39.28;;;25.77;;
25824;SDS011;13658;44.534;18.694;2023-04-03T16:04:38;40.13;;;25.50;;
25824;SDS011;13658;44.534;18.694;2023-04-03T16:07:05;38.53;;;24.13;;
25824;SDS011;13658;44.534;18.694;2023-04-03T16:09:37;40.45;;;23.00;;
25824;SDS011;13658;44.534;18.694;2023-04-03T16:12:22;35.92;;;22.20;;
25824;SDS011;13658;44.534;18.694;2023-04-03T16:14:48;38.08;;;21.70;;
25824;SDS011;13658;44.534;18.694;2023-04-03T16:17:17;43.33;;;23.25;;
25824;SDS011;13658;44.534;18.694;2023-04-03T16:19:43;38.42;;;23.42;;
25824;SDS011;13658;44.534;18.694;2023-04-03T16:22:10;38.30;;;23.48;;
25824;SDS011;13658;44.534;18.694;2023-04-03T16:24:36;41.47;;;24.45;;
25824;SDS011;13658;44.534;18.694;2023-04-03T16:27:03;41.72;;;25.77;;
25824;SDS011;13658;44.534;18.694;2023-04-03T16:29:30;42.85;;;26.58;;
25824;SDS011;13658;44.534;18.694;2023-04-03T16:31:56;44.40;;;27.67;;
25824;SDS011;13658;44.534;18.694;2023-04-03T16:34:23;49.60;;;28.92;;
25824;SDS011;13658;44.534;18.694;2023-04-03T16:36:51;51.97;;;31.05;;
25824;SDS011;13658;44.534;18.694;2023-04-03T16:39:18;58.90;;;31.65;;
25824;SDS011;13658;44.534;18.694;2023-04-03T16:41:45;60.58;;;34.13;;